• Join FlightAware (Why Join?)
  • Login
  • US Flag 
10:13PM EST


 

Airport Tracker/Info


-or-


 

Live Flight TrackerFlight Track Log ✈ N400TM ✈ 28-Apr-2013 ✈ KLAS - KSDL

Flight Track Log - Related Links

Times and Time Zones

All times are in EDT time to prevent confusion due to time zone crossing. See the N400TM flight status page for this flight to view local times or setup timezone preferences in your user account.

Time Position Orientation Groundspeed Altitude Reporting Facility
EDT Latitude Longitude Course Direction KTS MPH feet Rate Location/Type
10:03PM 36.0633 -115.1697 184° South 114 131 2,800  Level Los Angeles Center
10:03PM 36.0528 -115.1706 184° South 113 130 3,100 600 Climbing Los Angeles Center
10:04PM 36.0178 -115.1689 178° South 121 139 3,700 240 Climbing Los Angeles Center
10:05PM 35.9936 -115.1647 172° South 122 140 3,700 780 Level Los Angeles Center
10:06PM 35.9494 -115.1514 166° South 132 152 5,300 1,140 Climbing Los Angeles Center
10:06PM 35.9481 -115.1456 106° East 116 133 5,400 780 Climbing Los Angeles Center
10:07PM 35.9236 -115.1122 132° Southeast 132 152 6,200 840 Climbing Los Angeles Center
10:08PM 35.9003 -115.0747 128° Southeast 136 157 7,000 780 Climbing Los Angeles Center
10:08PM 35.8964 -115.0667 121° Southeast 133 153 7,200 660 Climbing Los Angeles Center
10:09PM 35.8744 -115.0356 131° Southeast 138 159 7,800 600 Climbing Los Angeles Center
10:11PM 35.8472 -114.9922 128° Southeast 139 160 8,500 660 Climbing Los Angeles Center
10:12PM 35.8225 -114.9575 131° Southeast 137 158 9,400 720 Climbing Los Angeles Center
10:13PM 35.7975 -114.9214 130° Southeast 137 158 10,000 660 Climbing Los Angeles Center
10:14PM 35.7728 -114.8844 130° Southeast 139 160 10,800 840 Climbing Los Angeles Center
10:15PM 35.7425 -114.8397 130° Southeast 142 163 11,800 780 Climbing Los Angeles Center
10:16PM 35.7219 -114.8108 131° Southeast 141 162 12,400 660 Climbing Los Angeles Center
10:17PM 35.6906 -114.7656 130° Southeast 144 166 13,200 720 Climbing Los Angeles Center
10:18PM 35.6617 -114.7250 131° Southeast 156 180 13,900 540 Climbing Los Angeles Center
10:19PM 35.6322 -114.6864 133° Southeast 156 180 14,400 600 Climbing Los Angeles Center
10:20PM 35.6044 -114.6450 130° Southeast 156 180 15,200 720 Climbing Los Angeles Center
10:21PM 35.5747 -114.6075 134° Southeast 153 176 15,900 720 Climbing Los Angeles Center
10:22PM 35.5419 -114.5583 129° Southeast 154 177 16,700 660 Climbing Los Angeles Center
10:23PM 35.5131 -114.5172 131° Southeast 158 182 17,300 420 Climbing Los Angeles Center
10:24PM 35.4817 -114.4758 133° Southeast 162 186 17,600 120 Climbing Los Angeles Center
10:25PM 35.4478 -114.4314 133° Southeast 174 200 17,600  Level Los Angeles Center
10:26PM 35.4164 -114.3778 126° Southeast 188 216 17,600  Level Los Angeles Center
10:27PM 35.3822 -114.3258 129° Southeast 194 223 17,600  Level Los Angeles Center
10:28PM 35.3461 -114.2747 131° Southeast 195 224 17,600  Level Los Angeles Center
10:29PM 35.3042 -114.2119 129° Southeast 198 228 17,600  Level Los Angeles Center
10:30PM 35.2667 -114.1619 133° Southeast 198 228 17,600 -60 Level Los Angeles Center
10:31PM 35.2317 -114.1100 130° Southeast 198 228 17,500 -60 Descending Los Angeles Center
10:32PM 35.1947 -114.0594 132° Southeast 198 228 17,500  Level Los Angeles Center
10:33PM 35.1594 -114.0089 130° Southeast 197 227 17,500  Level Los Angeles Center
10:34PM 35.1219 -113.9594 133° Southeast 197 227 17,500  Level Los Angeles Center
10:35PM 35.0881 -113.9081 129° Southeast 197 227 17,500  Level Los Angeles Center
10:36PM 35.0514 -113.8581 132° Southeast 199 229 17,500  Level Los Angeles Center
10:37PM 35.0019 -113.7889 131° Southeast 195 224 17,600  Climbing Los Angeles Center
10:39PM 34.9658 -113.7389 131° Southeast 197 227 17,600  Level Los Angeles Center
10:40PM 34.9294 -113.6883 131° Southeast 199 229 17,600  Level Los Angeles Center
10:41PM 34.8925 -113.6392 132° Southeast 199 229 17,600 -120 Level Los Angeles Center
10:41PM 34.8706 -113.6094 132° Southeast 198 228 17,500  Descending Albuquerque Center
10:42PM 34.8319 -113.5614 134° Southeast 200 230 17,600  Climbing Albuquerque Center
10:43PM 34.7953 -113.5100 131° Southeast 201 231 17,600  Level Albuquerque Center
10:44PM 34.7611 -113.4583 129° Southeast 199 229 17,600  Level Albuquerque Center
10:45PM 34.7258 -113.4072 130° Southeast 198 228 17,600  Level Albuquerque Center
10:46PM 34.6917 -113.3592 131° Southeast 194 223 17,600 -60 Level Albuquerque Center
10:47PM 34.6569 -113.3092 130° Southeast 193 222 17,500 -60 Descending Albuquerque Center
10:48PM 34.6164 -113.2528 131° Southeast 188 216 17,500  Level Albuquerque Center
10:49PM 34.5850 -113.2056 129° Southeast 183 211 17,500  Level Albuquerque Center
10:50PM 34.5511 -113.1583 131° Southeast 186 214 17,500  Level Albuquerque Center
10:51PM 34.5172 -113.1136 133° Southeast 183 211 17,500  Level Albuquerque Center
10:52PM 34.4844 -113.0664 130° Southeast 184 212 17,500  Level Albuquerque Center
10:53PM 34.4497 -113.0219 133° Southeast 183 211 17,600  Climbing Albuquerque Center
10:54PM 34.4103 -112.9694 132° Southeast 184 212 17,600  Level Albuquerque Center
10:55PM 34.3747 -112.9225 133° Southeast 187 215 17,600  Level Albuquerque Center
10:56PM 34.3403 -112.8761 132° Southeast 188 216 17,700 -120 Climbing Albuquerque Center
10:57PM 34.3078 -112.8272 129° Southeast 187 215 17,400 -720 Descending Albuquerque Center
10:58PM 34.2658 -112.7733 133° Southeast 215 247 16,300 -1,140 Descending Albuquerque Center
10:59PM 34.2214 -112.7136 132° Southeast 236 272 15,100 -1,380 Descending Albuquerque Center
11:00PM 34.1997 -112.6883 136° Southeast 242 278 14,500 -900 Descending Albuquerque Center
11:00PM 34.1756 -112.6556 132° Southeast 240 276 14,200 -720 Descending Albuquerque Center
11:01PM 34.1600 -112.6317 128° Southeast 227 261 13,800 -1,080 Descending Albuquerque Center
11:01PM 34.1353 -112.5972 131° Southeast 229 264 13,100 -1,020 Descending Albuquerque Center
11:02PM 34.0919 -112.5406 133° Southeast 231 266 12,100 -1,080 Descending Albuquerque Center
11:03PM 34.0425 -112.4681 129° Southeast 233 268 11,000 -1,140 Descending Albuquerque Center
11:05PM 34.0022 -112.4086 129° Southeast 231 266 9,800 -1,200 Descending Albuquerque Center
11:06PM 33.9606 -112.3464 129° Southeast 238 274 8,600 -1,140 Descending Albuquerque Center
11:07PM 33.9231 -112.2822 125° Southeast 236 272 7,500 -1,080 Descending Albuquerque Center
11:08PM 33.8875 -112.2194 124° Southeast 230 265 6,400 -900 Descending Albuquerque Center
11:09PM 33.8517 -112.1558 124° Southeast 225 259 5,700 -420 Descending Albuquerque Center
11:10PM 33.8214 -112.1042 125° Southeast 201 231 5,600 -120 Descending Albuquerque Center
11:11PM 33.7839 -112.0481 129° Southeast 181 208 5,500 -60 Descending Albuquerque Center
11:12PM 33.7542 -112.0083 132° Southeast 175 201 5,500  Level Albuquerque Center